Time;durP1;ratioP1;P1;durP2;ratioP2;P2;SDS_P1;SDS_P2;PMS_P1;PMS_P2;Temp;Humidity;BMP_temperature;BMP_pressure;BME280_temperature;BME280_humidity;BME280_pressure;Samples;Min_cycle;Max_cycle;Signal;HPM_P1;HPM_P2
2021/11/06 00:01:09;;;;;;;;;;;;;;;-144.99;100.00;52509.25;5057065;28;20075;-67
2021/11/06 00:03:36;;;;;;;;;;;;;;;-144.99;100.00;52547.97;5056659;28;19999;-67
2021/11/06 00:06:02;;;;;;;;;;;;;;;-144.99;100.00;52533.69;5060844;28;19997;-67
2021/11/06 00:08:29;;;;;;;;;;;;;;;-144.99;100.00;52523.50;5065904;28;19992;-67
2021/11/06 00:10:55;;;;;;;;;;;;;;;-144.99;100.00;52523.50;5058407;28;19988;-67
2021/11/06 00:13:21;;;;;;;;;;;;;;;-144.99;100.00;52562.25;5053985;28;19993;-67
2021/11/06 00:15:48;;;;;;;;;;;;;;;-144.99;100.00;52537.78;5056278;28;19973;-67
2021/11/06 00:18:15;;;;;;;;;;;;;;;-144.99;100.00;52566.31;4708328;28;10000509;-67
2021/11/06 00:20:42;;;;;;;;;;;;;;;-144.99;100.00;52525.56;5058151;28;19988;-68
2021/11/06 00:23:08;;;;;;;;;;;;;;;-144.99;100.00;52552.03;5049430;28;19993;-67
2021/11/06 00:25:34;;;;;;;;;;;;;;;-144.99;100.00;52550.00;5045226;28;20473;-70
2021/11/06 00:28:01;;;;;;;;;;;;;;;-144.99;100.00;52513.31;5046607;28;19973;-67
2021/11/06 00:30:27;;;;;;;;;;;;;;;-144.99;100.00;52545.94;5052332;28;19985;-67
2021/11/06 00:32:55;;;;;;;;;;;;;;;-144.99;100.00;52527.59;5051267;28;20001;-67
2021/11/06 00:35:24;;;;;;;;;;;;;;;-144.99;100.00;52562.25;5053790;28;19981;-65
2021/11/06 00:37:51;;;;;;;;;;;;;;;-144.99;100.00;52545.94;5057326;28;19981;-69
2021/11/06 00:40:18;;;;;;;;;;;;;;;-144.99;100.00;52517.41;5066172;28;19977;-65
2021/11/06 00:42:44;;;;;;;;;;;;;;;-144.99;100.00;52527.59;5074655;28;19995;-65
2021/11/06 00:45:11;;;;;;;;;;;;;;;-144.99;100.00;52566.31;5071064;28;19977;-65
2021/11/06 00:47:38;;;;;;;;;;;;;;;-144.99;100.00;52552.03;5070263;28;19988;-65
2021/11/06 00:50:05;;;;;;;;;;;;;;;-144.99;100.00;52558.16;5066680;28;19973;-65
2021/11/06 00:52:32;;;;;;;;;;;;;;;-144.99;100.00;52605.03;5062702;28;20004;-67
2021/11/06 00:54:59;;;;;;;;;;;;;;;-144.99;100.00;52562.25;5059743;28;19991;-65
2021/11/06 00:57:26;;;;;;;;;;;;;;;-144.99;100.00;52578.53;5059977;28;19984;-65
2021/11/06 00:59:53;;;;;;;;;;;;;;;-144.99;100.00;52590.78;5050932;28;20293;-64
2021/11/06 01:02:19;;;;;;;;;;;;;;;-144.99;100.00;52492.94;5050775;28;20084;-64
2021/11/06 01:04:46;;;;;;;;;;;;;;;-144.99;100.00;52554.09;5048242;28;20458;-64
2021/11/06 01:07:12;;;;;;;;;;;;;;;-144.99;100.00;52550.00;5054118;28;19998;-64
2021/11/06 01:09:40;;;;;;;;;;;;;;;-144.99;100.00;52547.97;5055684;28;19968;-64
2021/11/06 01:12:06;;;;;;;;;;;;;;;-144.99;100.00;52598.94;5053959;28;19989;-63
2021/11/06 01:14:33;;;;;;;;;;;;;;;-144.99;100.00;52513.31;5054528;28;19978;-64
2021/11/06 01:16:59;;;;;;;;;;;;;;;-144.99;100.00;52541.84;5053693;28;19984;-65
2021/11/06 01:19:26;;;;;;;;;;;;;;;-144.99;100.00;52552.03;5053161;28;20483;-64
2021/11/06 01:21:52;;;;;;;;;;;;;;;-144.99;100.00;52537.78;5049496;28;19980;-63
2021/11/06 01:24:18;;;;;;;;;;;;;;;-144.99;100.00;52550.00;5042787;28;19977;-63
2021/11/06 01:26:46;;;;;;;;;;;;;;;-144.99;100.00;52501.09;5052970;28;19993;-68
2021/11/06 01:29:13;;;;;;;;;;;;;;;-144.99;100.00;52537.78;5053799;28;20349;-68
2021/11/06 01:31:39;;;;;;;;;;;;;;;-144.99;100.00;52509.25;5044537;28;19981;-67
2021/11/06 01:34:06;;;;;;;;;;;;;;;-144.99;100.00;52476.63;5054429;28;20341;-68
2021/11/06 01:36:32;;;;;;;;;;;;;;;-144.99;100.00;52550.00;5057865;28;20338;-67
2021/11/06 01:38:58;;;;;;;;;;;;;;;-144.99;100.00;52521.47;5052412;28;19973;-65
2021/11/06 01:41:25;;;;;;;;;;;;;;;-144.99;100.00;52572.44;5048139;28;19989;-65
2021/11/06 01:43:52;;;;;;;;;;;;;;;-144.99;100.00;52517.41;5057305;28;20440;-66
2021/11/06 01:46:19;;;;;;;;;;;;;;;-144.99;100.00;52525.56;5058254;28;20448;-66
2021/11/06 01:48:45;;;;;;;;;;;;;;;-144.99;100.00;52566.31;5051966;28;19980;-66
2021/11/06 01:51:12;;;;;;;;;;;;;;;-144.99;100.00;52550.00;5050273;28;19977;-66
2021/11/06 01:53:38;;;;;;;;;;;;;;;-144.99;100.00;52521.47;5049258;28;19993;-64
2021/11/06 01:56:05;;;;;;;;;;;;;;;-144.99;100.00;52556.13;5046390;28;19981;-64
2021/11/06 01:58:31;;;;;;;;;;;;;;;-144.99;100.00;52574.47;5051047;28;19973;-64
2021/11/06 02:00:59;;;;;;;;;;;;;;;-144.99;100.00;52521.47;5056794;28;19976;-64
2021/11/06 02:03:26;;;;;;;;;;;;;;;-144.99;100.00;52525.56;5052100;28;19993;-64
2021/11/06 02:05:52;;;;;;;;;;;;;;;-144.99;100.00;52515.34;5053721;28;19972;-64
2021/11/06 02:08:19;;;;;;;;;;;;;;;-144.99;100.00;52580.59;5050597;28;19977;-64
2021/11/06 02:10:45;;;;;;;;;;;;;;;-144.99;100.00;52545.94;5051616;28;19977;-63
2021/11/06 02:13:13;;;;;;;;;;;;;;;-144.99;100.00;52550.00;5050726;28;20368;-63
2021/11/06 02:15:39;;;;;;;;;;;;;;;-144.99;100.00;52554.09;5048508;28;19980;-63
2021/11/06 02:18:07;;;;;;;;;;;;;;;-144.99;100.00;52529.63;5047805;28;19988;-63
2021/11/06 02:20:34;;;;;;;;;;;;;;;-144.99;100.00;52550.00;5053596;28;20438;-64
2021/11/06 02:23:02;;;;;;;;;;;;;;;-144.99;100.00;52513.31;5049682;28;19996;-64
2021/11/06 02:25:29;;;;;;;;;;;;;;;-144.99;100.00;52545.94;5041741;28;20009;-64
2021/11/06 02:27:55;;;;;;;;;;;;;;;-144.99;100.00;52541.84;5054401;28;20547;-66
2021/11/06 02:30:22;;;;;;;;;;;;;;;-144.99;100.00;52554.09;5052590;28;19980;-66
2021/11/06 02:32:51;;;;;;;;;;;;;;;-144.99;100.00;52574.47;5047141;28;20707;-66
2021/11/06 02:35:17;;;;;;;;;;;;;;;-144.99;100.00;52521.47;5050201;28;20023;-66
2021/11/06 02:37:43;;;;;;;;;;;;;;;-144.99;100.00;52494.97;5040970;28;19973;-66
2021/11/06 02:40:12;;;;;;;;;;;;;;;-144.99;100.00;52531.66;5050378;28;19980;-67
2021/11/06 02:42:40;;;;;;;;;;;;;;;-144.99;100.00;52570.38;5048423;28;20618;-66
2021/11/06 02:45:09;;;;;;;;;;;;;;;-144.99;100.00;52519.44;5061887;28;19996;-68
2021/11/06 02:47:36;;;;;;;;;;;;;;;-144.99;100.00;52523.50;5066348;28;20053;-64
2021/11/06 02:50:02;;;;;;;;;;;;;;;-144.99;100.00;52537.78;5058070;28;19973;-65
2021/11/06 02:52:28;;;;;;;;;;;;;;;-144.99;100.00;52566.31;5066037;28;19999;-68
2021/11/06 02:54:55;;;;;;;;;;;;;;;-144.99;100.00;52537.78;5055319;28;19980;-69
2021/11/06 02:57:23;;;;;;;;;;;;;;;-144.99;100.00;52570.38;5058965;28;20053;-65
2021/11/06 02:59:50;;;;;;;;;;;;;;;-144.99;100.00;52558.16;5058553;28;19981;-66
2021/11/06 03:02:17;;;;;;;;;;;;;;;-144.99;100.00;52543.91;5058293;28;20000;-67
2021/11/06 03:04:43;;;;;;;;;;;;;;;-144.99;100.00;52564.28;5060213;28;19982;-64
2021/11/06 03:07:10;;;;;;;;;;;;;;;-144.99;100.00;52541.84;5054609;28;19989;-66
2021/11/06 03:09:38;;;;;;;;;;;;;;;-144.99;100.00;52533.69;5055934;28;19973;-65
2021/11/06 03:12:05;;;;;;;;;;;;;;;-144.99;100.00;52525.56;5058656;28;20076;-66
2021/11/06 03:14:34;;;;;;;;;;;;;;;-144.99;100.00;52541.84;5044414;28;19977;-65
2021/11/06 03:17:00;;;;;;;;;;;;;;;-144.99;100.00;52556.13;5047646;28;19977;-67
2021/11/06 03:19:26;;;;;;;;;;;;;;;-144.99;100.00;52562.25;5047818;28;19974;-66
2021/11/06 03:21:53;;;;;;;;;;;;;;;-144.99;100.00;52537.78;5045238;28;19974;-66
2021/11/06 03:24:19;;;;;;;;;;;;;;;-144.99;100.00;52521.47;5042912;28;19992;-65
2021/11/06 03:26:46;;;;;;;;;;;;;;;-144.99;100.00;52533.69;5049118;28;19975;-66
2021/11/06 03:29:12;;;;;;;;;;;;;;;-144.99;100.00;52531.66;5048344;28;19974;-65
2021/11/06 03:31:40;;;;;;;;;;;;;;;-144.99;100.00;52501.09;5044782;28;19984;-66
2021/11/06 03:34:06;;;;;;;;;;;;;;;-144.99;100.00;52509.25;5043600;28;20012;-66
2021/11/06 03:36:33;;;;;;;;;;;;;;;-144.99;100.00;52566.31;5045075;28;19973;-66
2021/11/06 03:38:59;;;;;;;;;;;;;;;-144.99;100.00;52527.59;5045543;28;19997;-66
2021/11/06 03:41:26;;;;;;;;;;;;;;;-144.99;100.00;52521.47;5050596;28;20440;-66
2021/11/06 03:43:52;;;;;;;;;;;;;;;-144.99;100.00;52556.13;5049355;28;20014;-66
2021/11/06 03:46:18;;;;;;;;;;;;;;;-144.99;100.00;52554.09;5047432;28;19981;-65
2021/11/06 03:48:46;;;;;;;;;;;;;;;-144.99;100.00;52554.09;5050621;28;19977;-66
2021/11/06 03:51:12;;;;;;;;;;;;;;;-144.99;100.00;52511.28;5056700;28;19973;-66
2021/11/06 03:53:40;;;;;;;;;;;;;;;-144.99;100.00;52545.94;5053607;28;20001;-66
2021/11/06 03:56:06;;;;;;;;;;;;;;;-144.99;100.00;52545.94;5051288;28;19981;-66
2021/11/06 03:58:32;;;;;;;;;;;;;;;-144.99;100.00;52541.84;5051231;28;19983;-65
2021/11/06 04:01:00;;;;;;;;;;;;;;;-144.99;100.00;52533.69;5062399;28;19977;-65
2021/11/06 04:03:26;;;;;;;;;;;;;;;-144.99;100.00;52545.94;5053292;28;20047;-66
2021/11/06 04:05:54;;;;;;;;;;;;;;;-144.99;100.00;52541.84;5055370;28;19973;-65
2021/11/06 04:08:20;;;;;;;;;;;;;;;-144.99;100.00;52533.69;5047611;28;20348;-69
2021/11/06 04:10:46;;;;;;;;;;;;;;;-144.99;100.00;52566.31;5052457;28;20001;-65
2021/11/06 04:13:13;;;;;;;;;;;;;;;-144.99;100.00;52537.78;5054796;28;19996;-65
2021/11/06 04:15:40;;;;;;;;;;;;;;;-144.99;100.00;52511.28;5055691;28;20426;-65
2021/11/06 04:18:07;;;;;;;;;;;;;;;-144.99;100.00;52513.31;5077806;22;20106;-59
2021/11/06 04:20:33;;;;;;;;;;;;;;;-144.99;100.00;52529.63;5087271;28;19973;-59
2021/11/06 04:23:01;;;;;;;;;;;;;;;-144.99;100.00;52517.41;5085915;28;19992;-59
2021/11/06 04:25:28;;;;;;;;;;;;;;;-144.99;100.00;52558.16;5061911;28;20329;-59
2021/11/06 04:27:54;;;;;;;;;;;;;;;-144.99;100.00;52550.00;5066766;28;19996;-59
2021/11/06 04:30:20;;;;;;;;;;;;;;;-144.99;100.00;52550.00;5064237;28;19981;-58
2021/11/06 04:32:47;;;;;;;;;;;;;;;-144.99;100.00;52562.25;5061058;28;19989;-60
2021/11/06 04:35:13;;;;;;;;;;;;;;;-144.99;100.00;52562.25;5063820;28;19992;-60
2021/11/06 04:37:40;;;;;;;;;;;;;;;-144.99;100.00;52574.47;5065546;28;19989;-60
2021/11/06 04:40:09;;;;;;;;;;;;;;;-144.99;100.00;52560.19;5065379;28;19976;-60
2021/11/06 04:42:35;;;;;;;;;;;;;;;-144.99;100.00;52550.00;5064365;28;19996;-60
2021/11/06 04:45:02;;;;;;;;;;;;;;;-144.99;100.00;52476.63;5065198;28;20352;-60
2021/11/06 04:47:28;;;;;;;;;;;;;;;-144.99;100.00;52550.00;5065092;28;19992;-60
2021/11/06 04:49:54;;;;;;;;;;;;;;;-144.99;100.00;52529.63;5063454;28;20203;-62
2021/11/06 04:52:21;;;;;;;;;;;;;;;-144.99;100.00;52521.47;5063188;28;20003;-62
2021/11/06 04:54:47;;;;;;;;;;;;;;;-144.99;100.00;52558.16;5060334;28;20035;-63
2021/11/06 04:57:15;;;;;;;;;;;;;;;-144.99;100.00;52550.00;5063795;28;19984;-62
2021/11/06 04:59:42;;;;;;;;;;;;;;;-144.99;100.00;52586.69;5060244;28;20460;-59
2021/11/06 05:02:08;;;;;;;;;;;;;;;-144.99;100.00;52560.19;5061318;28;20326;-63
2021/11/06 05:04:34;;;;;;;;;;;;;;;-144.99;100.00;52517.41;5067328;28;19980;-63
2021/11/06 05:07:01;;;;;;;;;;;;;;;-144.99;100.00;52541.84;5066051;28;20024;-63
2021/11/06 05:09:27;;;;;;;;;;;;;;;-144.99;100.00;52513.31;5062953;28;20361;-63
2021/11/06 05:11:53;;;;;;;;;;;;;;;-144.99;100.00;52550.00;5063445;28;20454;-64
2021/11/06 05:14:21;;;;;;;;;;;;;;;-144.99;100.00;52574.47;5063369;28;20301;-63
2021/11/06 05:16:48;;;;;;;;;;;;;;;-144.99;100.00;52515.34;5065476;28;19977;-63
2021/11/06 05:19:15;;;;;;;;;;;;;;;-144.99;100.00;52523.50;5064811;28;20464;-64
2021/11/06 05:21:41;;;;;;;;;;;;;;;-144.99;100.00;52533.69;5063885;28;19973;-63
2021/11/06 05:24:09;;;;;;;;;;;;;;;-144.99;100.00;52525.56;5061551;28;20461;-63
2021/11/06 05:26:36;;;;;;;;;;;;;;;-144.99;100.00;52550.00;5062367;28;20349;-63
2021/11/06 05:29:06;;;;;;;;;;;;;;;-144.99;100.00;52511.28;5059634;28;19989;-64
2021/11/06 05:31:35;;;;;;;;;;;;;;;-144.99;100.00;52545.94;5073953;28;19973;-62
2021/11/06 05:34:02;;;;;;;;;;;;;;;-144.99;100.00;52554.09;5061152;28;20536;-69
2021/11/06 05:36:28;;;;;;;;;;;;;;;-144.99;100.00;52521.47;5065560;28;19977;-71
2021/11/06 05:38:55;;;;;;;;;;;;;;;-144.99;100.00;52576.50;5060264;28;19983;-64
2021/11/06 05:41:21;;;;;;;;;;;;;;;-144.99;100.00;52541.84;5065165;28;19983;-64
2021/11/06 05:43:48;;;;;;;;;;;;;;;-144.99;100.00;52582.63;5063840;28;19989;-65
2021/11/06 05:46:14;;;;;;;;;;;;;;;-144.99;100.00;52537.78;5066267;28;20317;-65
2021/11/06 05:48:42;;;;;;;;;;;;;;;-144.99;100.00;52564.28;5062610;28;20012;-64
2021/11/06 05:51:08;;;;;;;;;;;;;;;-144.99;100.00;52586.69;5061909;28;19984;-64
2021/11/06 05:53:35;;;;;;;;;;;;;;;-144.99;100.00;52554.09;5061157;28;20003;-64
2021/11/06 05:56:01;;;;;;;;;;;;;;;-144.99;100.00;52554.09;5049583;28;20457;-64
2021/11/06 05:58:27;;;;;;;;;;;;;;;-144.99;100.00;52497.00;5049846;28;20452;-64
2021/11/06 06:00:54;;;;;;;;;;;;;;;-144.99;100.00;52537.78;5049419;28;19984;-64
2021/11/06 06:03:20;;;;;;;;;;;;;;;-144.99;100.00;52531.66;5065492;28;19935;-64
2021/11/06 06:05:48;;;;;;;;;;;;;;;-144.99;100.00;52552.03;5059413;28;19993;-66
2021/11/06 06:08:14;;;;;;;;;;;;;;;-144.99;100.00;52545.94;5049110;28;19997;-67
2021/11/06 06:10:40;;;;;;;;;;;;;;;-144.99;100.00;52582.63;5050243;28;20059;-67
2021/11/06 06:13:07;;;;;;;;;;;;;;;-144.99;100.00;52558.16;5066634;28;19989;-67
2021/11/06 06:15:33;;;;;;;;;;;;;;;-144.99;100.00;52537.78;5082935;28;19976;-67
2021/11/06 06:18:00;;;;;;;;;;;;;;;-144.99;100.00;52545.94;5052727;28;20072;-68
2021/11/06 06:20:26;;;;;;;;;;;;;;;-144.99;100.00;52552.03;5049356;28;20406;-66
2021/11/06 06:22:54;;;;;;;;;;;;;;;-144.99;100.00;52562.25;5065720;28;20019;-66
2021/11/06 06:25:20;;;;;;;;;;;;;;;-144.99;100.00;52560.19;5068867;28;20352;-67
2021/11/06 06:27:47;;;;;;;;;;;;;;;-144.99;100.00;52525.56;5069026;28;20000;-66
2021/11/06 06:30:14;;;;;;;;;;;;;;;-144.99;100.00;52545.94;5068975;28;19987;-66
2021/11/06 06:32:41;;;;;;;;;;;;;;;-144.99;100.00;52533.69;5069085;28;20016;-66
2021/11/06 06:35:09;;;;;;;;;;;;;;;-144.99;100.00;52537.78;5074146;28;20253;-67
2021/11/06 06:37:36;;;;;;;;;;;;;;;-144.99;100.00;52521.47;5069885;28;20448;-68
2021/11/06 06:40:04;;;;;;;;;;;;;;;-144.99;100.00;52523.50;5069387;28;19987;-67
2021/11/06 06:42:30;;;;;;;;;;;;;;;-144.99;100.00;52545.94;5067978;28;20005;-67
2021/11/06 06:44:57;;;;;;;;;;;;;;;-144.99;100.00;52517.41;5077778;28;19980;-67
2021/11/06 06:47:23;;;;;;;;;;;;;;;-144.99;100.00;52537.78;5078204;28;19972;-67
2021/11/06 06:49:50;;;;;;;;;;;;;;;-144.99;100.00;52521.47;5068982;28;19985;-67
2021/11/06 06:52:17;;;;;;;;;;;;;;;-144.99;100.00;52554.09;5072601;28;20541;-68
2021/11/06 06:54:43;;;;;;;;;;;;;;;-144.99;100.00;52550.00;5072743;28;19977;-68
2021/11/06 06:57:11;;;;;;;;;;;;;;;-144.99;100.00;52537.78;5068986;28;19992;-66
2021/11/06 06:59:38;;;;;;;;;;;;;;;-144.99;100.00;52525.56;5069191;28;19985;-66
2021/11/06 07:02:05;;;;;;;;;;;;;;;-144.99;100.00;52552.03;5068897;28;19987;-67
2021/11/06 07:04:31;;;;;;;;;;;;;;;-144.99;100.00;52513.31;5068194;28;20028;-67
2021/11/06 07:06:58;;;;;;;;;;;;;;;-144.99;100.00;52554.09;5068643;28;19981;-67
2021/11/06 07:09:24;;;;;;;;;;;;;;;-144.99;100.00;52505.16;5068522;28;20389;-65
2021/11/06 07:11:51;;;;;;;;;;;;;;;-144.99;100.00;52562.25;5068255;28;19988;-66
2021/11/06 07:14:20;;;;;;;;;;;;;;;-144.99;100.00;52550.00;5073574;28;19977;-67
2021/11/06 07:16:47;;;;;;;;;;;;;;;-144.99;100.00;52533.69;5074392;28;20523;-66
2021/11/06 07:19:14;;;;;;;;;;;;;;;-144.99;100.00;52558.16;5052629;28;19985;-68
2021/11/06 07:21:40;;;;;;;;;;;;;;;-144.99;100.00;52545.94;5058653;28;19981;-67
2021/11/06 07:24:07;;;;;;;;;;;;;;;-144.99;100.00;52541.84;5052091;28;20003;-66
2021/11/06 07:26:33;;;;;;;;;;;;;;;-144.99;100.00;52537.78;5058877;28;19988;-68
2021/11/06 07:29:00;;;;;;;;;;;;;;;-144.99;100.00;52558.16;5058522;28;20004;-68
2021/11/06 07:31:28;;;;;;;;;;;;;;;-144.99;100.00;52513.31;5052314;28;20445;-66
2021/11/06 07:33:55;;;;;;;;;;;;;;;-144.99;100.00;52554.09;5052465;28;20255;-67
2021/11/06 07:36:21;;;;;;;;;;;;;;;-144.99;100.00;52521.47;5074207;28;20480;-66
2021/11/06 07:38:47;;;;;;;;;;;;;;;-144.99;100.00;52513.31;5072413;28;20023;-66
2021/11/06 07:41:14;;;;;;;;;;;;;;;-144.99;100.00;52521.47;5072012;28;20011;-67
2021/11/06 07:43:41;;;;;;;;;;;;;;;-144.99;100.00;52570.38;5078938;28;19996;-66
2021/11/06 07:46:07;;;;;;;;;;;;;;;-144.99;100.00;52517.41;5086036;28;20095;-66
2021/11/06 07:48:35;;;;;;;;;;;;;;;-144.99;100.00;52566.31;5090417;28;20000;-64
2021/11/06 07:51:02;;;;;;;;;;;;;;;-144.99;100.00;52521.47;5075900;28;19995;-66
2021/11/06 07:53:29;;;;;;;;;;;;;;;-144.99;100.00;52513.31;5075989;28;19993;-66
2021/11/06 07:55:55;;;;;;;;;;;;;;;-144.99;100.00;52562.25;5071615;28;19980;-66
2021/11/06 07:58:22;;;;;;;;;;;;;;;-144.99;100.00;52505.16;5072253;28;20034;-66
2021/11/06 08:00:48;;;;;;;;;;;;;;;-144.99;100.00;52511.28;5063904;28;20486;-66
2021/11/06 08:03:15;;;;;;;;;;;;;;;-144.99;100.00;52509.25;5066956;28;20008;-66
2021/11/06 08:05:43;;;;;;;;;;;;;;;-144.99;100.00;52554.09;5072315;28;19981;-66
2021/11/06 08:08:10;;;;;;;;;;;;;;;-144.99;100.00;52586.69;5071700;28;20012;-67
2021/11/06 08:10:36;;;;;;;;;;;;;;;-144.99;100.00;52470.50;5072726;28;20428;-65
2021/11/06 08:13:04;;;;;;;;;;;;;;;-144.99;100.00;52525.56;5072113;28;20008;-65
2021/11/06 08:15:31;;;;;;;;;;;;;;;-144.99;100.00;52533.69;5086321;28;19980;-66
2021/11/06 08:17:57;;;;;;;;;;;;;;;-144.99;100.00;52554.09;5055791;28;19992;-71
2021/11/06 08:20:24;;;;;;;;;;;;;;;-144.99;100.00;52545.94;5052220;28;19937;-66
2021/11/06 08:22:52;;;;;;;;;;;;;;;-144.99;100.00;52545.94;5068565;28;20024;-66
2021/11/06 08:25:19;;;;;;;;;;;;;;;-144.99;100.00;52527.59;5071903;28;19970;-67
2021/11/06 08:27:46;;;;;;;;;;;;;;;-144.99;100.00;52537.78;5053660;28;19981;-67
2021/11/06 08:30:13;;;;;;;;;;;;;;;-144.99;100.00;52545.94;5051812;28;19992;-67
2021/11/06 08:32:39;;;;;;;;;;;;;;;-144.99;100.00;52501.09;5051730;28;20017;-67
2021/11/06 08:35:08;;;;;;;;;;;;;;;-144.99;100.00;52541.84;5067123;28;19963;-67
2021/11/06 08:37:34;;;;;;;;;;;;;;;-144.99;100.00;52566.31;5073559;28;19984;-66
2021/11/06 08:40:02;;;;;;;;;;;;;;;-144.99;100.00;52525.56;5071735;28;19985;-66
2021/11/06 08:42:28;;;;;;;;;;;;;;;-144.99;100.00;52533.69;5071174;28;20003;-66
2021/11/06 08:44:55;;;;;;;;;;;;;;;-144.99;100.00;52545.94;5085389;28;20444;-66
2021/11/06 08:47:21;;;;;;;;;;;;;;;-144.99;100.00;52509.25;5076142;28;20274;-66
2021/11/06 08:49:48;;;;;;;;;;;;;;;-144.99;100.00;52521.47;5071827;28;20411;-67
2021/11/06 08:52:18;;;;;;;;;;;;;;;-144.99;100.00;52482.75;5075228;28;19997;-65
2021/11/06 08:54:44;;;;;;;;;;;;;;;-144.99;100.00;52533.69;5075587;28;20059;-66
2021/11/06 08:57:12;;;;;;;;;;;;;;;-144.99;100.00;52517.41;5071199;28;19993;-66
2021/11/06 08:59:38;;;;;;;;;;;;;;;-144.99;100.00;52545.94;5059744;28;19981;-67
2021/11/06 09:02:05;;;;;;;;;;;;;;;-144.99;100.00;52507.19;5050926;28;19984;-66
2021/11/06 09:04:32;;;;;;;;;;;;;;;-144.99;100.00;52517.41;5050408;28;19992;-67
2021/11/06 09:06:58;;;;;;;;;;;;;;;-144.99;100.00;52537.78;5050900;28;19981;-66
2021/11/06 09:09:25;;;;;;;;;;;;;;;-144.99;100.00;52509.25;5063681;28;19996;-66
2021/11/06 09:11:53;;;;;;;;;;;;;;;-144.99;100.00;52525.56;5070762;28;20357;-67
2021/11/06 09:14:21;;;;;;;;;;;;;;;-144.99;100.00;52558.16;5074593;28;20502;-67
2021/11/06 09:16:48;;;;;;;;;;;;;;;-144.99;100.00;52517.41;5077212;28;20079;-66
2021/11/06 09:19:15;;;;;;;;;;;;;;;-144.99;100.00;52505.16;5070707;28;20121;-67
2021/11/06 09:21:42;;;;;;;;;;;;;;;-144.99;100.00;52511.28;5064250;28;20447;-66
2021/11/06 09:24:09;;;;;;;;;;;;;;;-144.99;100.00;52537.78;5070306;28;20043;-66
2021/11/06 09:26:37;;;;;;;;;;;;;;;-144.99;100.00;52480.72;5070870;28;19981;-66
2021/11/06 09:29:05;;;;;;;;;;;;;;;-144.99;100.00;52537.78;5069983;28;20036;-68
2021/11/06 09:31:32;;;;;;;;;;;;;;;-144.99;100.00;52517.41;5062712;28;19988;-66
2021/11/06 09:33:59;;;;;;;;;;;;;;;-144.99;100.00;52545.94;5065636;28;19996;-66
2021/11/06 09:36:25;;;;;;;;;;;;;;;-144.99;100.00;52476.63;5076847;28;19977;-66
2021/11/06 09:38:53;;;;;;;;;;;;;;;-144.99;100.00;52505.16;5069590;28;19981;-66
2021/11/06 09:41:19;;;;;;;;;;;;;;;-144.99;100.00;52547.97;5069831;28;19985;-66
2021/11/06 09:43:46;;;;;;;;;;;;;;;-144.99;100.00;52515.34;5069590;28;19993;-66
2021/11/06 09:46:13;;;;;;;;;;;;;;;-144.99;100.00;52521.47;5085439;28;20056;-66
2021/11/06 09:48:43;;;;;;;;;;;;;;;-144.99;100.00;52554.09;5073743;28;20013;-66
2021/11/06 09:51:10;;;;;;;;;;;;;;;-144.99;100.00;52507.19;5074323;28;19980;-66
2021/11/06 09:53:40;;;;;;;;;;;;;;;-144.99;100.00;52525.56;5072847;28;19998;-65
2021/11/06 09:56:06;;;;;;;;;;;;;;;-144.99;100.00;52513.31;5069788;28;20359;-65
2021/11/06 09:58:33;;;;;;;;;;;;;;;-144.99;100.00;52507.19;5070548;28;19975;-64
2021/11/06 10:00:59;;;;;;;;;;;;;;;-144.99;100.00;52521.47;5069933;28;20364;-63
2021/11/06 10:03:26;;;;;;;;;;;;;;;-144.99;100.00;52509.25;5070133;28;20004;-64
2021/11/06 10:05:55;;;;;;;;;;;;;;;-144.99;100.00;52488.84;5069835;28;20054;-64
2021/11/06 10:08:23;;;;;;;;;;;;;;;-144.99;100.00;52525.56;5070018;28;19981;-64
2021/11/06 10:10:50;;;;;;;;;;;;;;;-144.99;100.00;52513.31;5069794;28;20456;-62
2021/11/06 10:13:17;;;;;;;;;;;;;;;-144.99;100.00;52525.56;5069196;28;19993;-63
2021/11/06 10:15:45;;;;;;;;;;;;;;;-144.99;100.00;52515.34;5084801;28;19992;-64
2021/11/06 10:18:18;;;;;;;;;;;;;;;-144.99;100.00;52533.69;5069982;22;20488;-66
2021/11/06 10:20:47;;;;;;;;;;;;;;;-144.99;100.00;52537.78;5066932;28;19987;-66
2021/11/06 10:23:15;;;;;;;;;;;;;;;-144.99;100.00;52505.16;5070627;28;19997;-66
2021/11/06 10:25:41;;;;;;;;;;;;;;;-144.99;100.00;52509.25;5070960;28;19984;-66
2021/11/06 10:28:09;;;;;;;;;;;;;;;-144.99;100.00;52558.16;5070176;28;19992;-66
2021/11/06 10:30:37;;;;;;;;;;;;;;;-144.99;100.00;52543.91;5070635;28;19990;-66
2021/11/06 10:33:05;;;;;;;;;;;;;;;-144.99;100.00;52492.94;5070895;28;19997;-65
2021/11/06 10:35:32;;;;;;;;;;;;;;;-144.99;100.00;52505.16;5070356;28;20390;-65
2021/11/06 10:38:00;;;;;;;;;;;;;;;-144.99;100.00;52505.16;5070456;28;20009;-66
2021/11/06 10:40:31;;;;;;;;;;;;;;;-144.99;100.00;52550.00;5070638;28;20445;-66
2021/11/06 10:42:58;;;;;;;;;;;;;;;-144.99;100.00;52537.78;5070029;28;19996;-68
2021/11/06 10:45:26;;;;;;;;;;;;;;;-144.99;100.00;52456.25;5070582;28;19985;-66
2021/11/06 10:47:54;;;;;;;;;;;;;;;-144.99;100.00;52521.47;5070386;28;19977;-66
2021/11/06 10:50:36;;;;;;;;;;;;;;;-144.99;100.00;52517.41;5072785;28;20004;-66
2021/11/06 10:53:02;;;;;;;;;;;;;;;-144.99;100.00;52486.81;5074447;28;19992;-67
2021/11/06 10:55:34;;;;;;;;;;;;;;;-144.99;100.00;52517.41;5074479;28;20011;-66
2021/11/06 10:58:01;;;;;;;;;;;;;;;-144.99;100.00;52550.00;5074243;28;19981;-65
2021/11/06 11:00:27;;;;;;;;;;;;;;;-144.99;100.00;52537.78;5074364;28;20472;-67
2021/11/06 11:02:54;;;;;;;;;;;;;;;-144.99;100.00;52562.25;5083221;28;19996;-66
2021/11/06 11:05:34;;;;;;;;;;;;;;;-144.99;100.00;52537.78;5078692;28;20462;-66
2021/11/06 11:08:01;;;;;;;;;;;;;;;-144.99;100.00;52517.41;5074709;28;20027;-67
2021/11/06 11:10:27;;;;;;;;;;;;;;;-144.99;100.00;52554.09;5074511;28;20004;-67
2021/11/06 11:13:08;;;;;;;;;;;;;;;-144.99;100.00;52501.09;5075041;28;20075;-67
2021/11/06 11:15:34;;;;;;;;;;;;;;;-144.99;100.00;52521.47;5078042;28;19961;-67
2021/11/06 11:18:01;;;;;;;;;;;;;;;-144.99;100.00;52505.16;5073795;28;19985;-68
2021/11/06 11:20:28;;;;;;;;;;;;;;;-144.99;100.00;52545.94;5071549;28;19977;-66
2021/11/06 11:23:12;;;;;;;;;;;;;;;-144.99;100.00;52523.50;5085100;28;20001;-66
2021/11/06 11:25:38;;;;;;;;;;;;;;;-144.99;100.00;52513.31;5083368;28;20363;-67
2021/11/06 11:28:05;;;;;;;;;;;;;;;-144.99;100.00;52525.56;5081203;28;19981;-66
2021/11/06 11:30:33;;;;;;;;;;;;;;;-144.99;100.00;52517.41;5082714;28;19997;-66
2021/11/06 11:32:59;;;;;;;;;;;;;;;-144.99;100.00;52525.56;5083097;28;19985;-66
2021/11/06 11:35:26;;;;;;;;;;;;;;;-144.99;100.00;52556.13;5078829;28;20209;-67
2021/11/06 11:37:54;;;;;;;;;;;;;;;-144.99;100.00;52570.38;5074164;28;20008;-67
2021/11/06 11:40:20;;;;;;;;;;;;;;;-144.99;100.00;52539.81;5074255;28;19992;-67
2021/11/06 11:42:52;;;;;;;;;;;;;;;-144.99;100.00;52545.94;5073672;28;19996;-66
2021/11/06 11:45:24;;;;;;;;;;;;;;;-144.99;100.00;52541.84;5074266;28;20000;-66
2021/11/06 11:47:56;;;;;;;;;;;;;;;-144.99;100.00;52525.56;5073799;28;19983;-67
2021/11/06 11:50:24;;;;;;;;;;;;;;;-144.99;100.00;52533.69;5072483;28;19992;-67
2021/11/06 11:52:52;;;;;;;;;;;;;;;-144.99;100.00;52566.31;5072233;28;19992;-67
2021/11/06 11:55:19;;;;;;;;;;;;;;;-144.99;100.00;52545.94;5073842;28;19980;-66
2021/11/06 11:57:51;;;;;;;;;;;;;;;-144.99;100.00;52529.63;5074016;28;19981;-66
2021/11/06 12:00:38;;;;;;;;;;;;;;;-144.99;100.00;52519.44;5073737;28;19981;-66
2021/11/06 12:03:07;;;;;;;;;;;;;;;-144.99;100.00;52537.78;5074997;28;20500;-66
2021/11/06 12:05:38;;;;;;;;;;;;;;;-144.99;100.00;52513.31;5074501;28;19981;-67
2021/11/06 12:08:23;;;;;;;;;;;;;;;-144.99;100.00;52554.09;5074214;28;19988;-66
2021/11/06 12:10:55;;;;;;;;;;;;;;;-144.99;100.00;52513.31;5074347;28;20039;-67
2021/11/06 12:13:34;;;;;;;;;;;;;;;-144.99;100.00;52525.56;5073980;28;20000;-66
2021/11/06 12:16:01;;;;;;;;;;;;;;;-144.99;100.00;52476.63;5074820;28;19973;-66
2021/11/06 12:21:26;;;;;;;;;;;;;;;-144.99;100.00;52521.47;5109496;27;19973;-66